Time;durP1;ratioP1;P1;durP2;ratioP2;P2;SDS_P1;SDS_P2;PMS_P1;PMS_P2;Temp;Humidity;BMP_temperature;BMP_pressure;BME280_temperature;BME280_humidity;BME280_pressure;Samples;Min_cycle;Max_cycle;Signal;HPM_P1;HPM_P2
2022/12/24 02:48:31;;;;;;;50.22;6.68;;;9.10;99.90;;;;;;5129963;27;20383;-68
2022/12/24 02:51:06;;;;;;;40.15;6.00;;;10.10;99.90;;;;;;5131112;27;20027;-69
2022/12/24 02:53:32;;;;;;;41.30;5.82;;;10.00;99.90;;;;;;5130919;27;20027;-69
2022/12/24 02:56:43;;;;;;;38.50;6.78;;;10.00;99.90;;;;;;5119440;27;20098;-70
2022/12/24 02:59:18;;;;;;;40.17;5.93;;;9.90;99.90;;;;;;5047066;28;20033;-69
2022/12/24 03:02:11;;;;;;;48.88;6.55;;;9.90;99.90;;;;;;5066089;28;20055;-68
2022/12/24 03:04:55;;;;;;;35.95;5.78;;;9.80;99.90;;;;;;5069650;28;20028;-69
2022/12/24 03:07:39;;;;;;;36.25;4.95;;;9.80;99.90;;;;;;5069472;28;20075;-70
2022/12/24 03:10:33;;;;;;;40.67;6.10;;;9.80;99.90;;;;;;5069417;28;20020;-69
2022/12/24 03:13:11;;;;;;;39.08;5.43;;;9.80;99.90;;;;;;5069548;28;20054;-68
2022/12/24 03:15:38;;;;;;;33.63;5.07;;;9.70;99.90;;;;;;5069505;28;20049;-67
2022/12/24 03:18:08;;;;;;;37.30;6.18;;;9.80;99.90;;;;;;5069239;28;20165;-68
2022/12/24 03:20:37;;;;;;;34.80;5.53;;;9.70;99.90;;;;;;5069093;28;20067;-68
2022/12/24 03:23:04;;;;;;;34.83;5.28;;;9.70;99.90;;;;;;5068803;28;20067;-68
2022/12/24 03:25:31;;;;;;;41.72;6.47;;;9.70;99.90;;;;;;5069153;28;20107;-69
2022/12/24 03:27:57;;;;;;;38.20;5.18;;;9.70;99.90;;;;;;5069020;28;20487;-67
2022/12/24 03:30:44;;;;;;;40.95;5.72;;;9.70;99.90;;;;;;5068676;28;20025;-68
2022/12/24 03:33:13;;;;;;;41.20;5.78;;;9.80;99.90;;;;;;5068570;28;20047;-69
2022/12/24 03:35:39;;;;;;;35.63;4.93;;;9.80;99.90;;;;;;5068529;28;20039;-68
2022/12/24 03:38:05;;;;;;;32.83;5.85;;;9.90;99.90;;;;;;5068644;28;20133;-69
2022/12/24 03:40:30;;;;;;;35.83;5.40;;;9.90;99.90;;;;;;5068704;28;20043;-68
2022/12/24 03:42:56;;;;;;;36.67;5.10;;;9.90;99.90;;;;;;5067353;28;20473;-68
2022/12/24 03:45:21;;;;;;;37.85;4.47;;;10.00;99.90;;;;;;5068412;28;20025;-70
2022/12/24 03:47:47;;;;;;;31.77;6.03;;;10.00;99.90;;;;;;5064114;28;20132;-70
2022/12/24 03:50:12;;;;;;;36.85;5.43;;;10.10;99.90;;;;;;5055256;28;20373;-69
2022/12/24 03:52:38;;;;;;;42.50;7.25;;;10.10;99.90;;;;;;5055178;28;20394;-69
2022/12/24 03:55:04;;;;;;;36.15;5.35;;;10.20;99.90;;;;;;5055397;28;20037;-68
2022/12/24 03:57:30;;;;;;;25.67;4.35;;;10.20;99.90;;;;;;5055122;28;20159;-69
2022/12/24 03:59:56;;;;;;;31.00;4.63;;;10.30;99.90;;;;;;5055121;28;20075;-68
2022/12/24 04:02:21;;;;;;;32.30;4.70;;;10.30;99.90;;;;;;5055280;28;20420;-70
2022/12/24 04:04:47;;;;;;;34.10;6.50;;;10.30;99.90;;;;;;5055185;28;20029;-69
2022/12/24 04:07:12;;;;;;;25.27;3.75;;;10.30;99.90;;;;;;5054918;28;20031;-68
2022/12/24 04:09:39;;;;;;;37.90;5.25;;;10.40;99.90;;;;;;5054749;28;20155;-68
2022/12/24 04:12:05;;;;;;;39.47;5.70;;;10.40;99.90;;;;;;5054976;28;20136;-69
2022/12/24 04:14:30;;;;;;;42.03;5.50;;;10.50;99.90;;;;;;5054668;28;20532;-69
2022/12/24 04:16:56;;;;;;;31.27;5.60;;;10.50;99.90;;;;;;5054367;28;20076;-68
2022/12/24 04:19:21;;;;;;;41.83;7.35;;;10.50;99.90;;;;;;5054887;28;20029;-70
2022/12/24 04:21:47;;;;;;;31.80;5.30;;;10.50;99.90;;;;;;5054619;28;20421;-70
2022/12/24 04:24:12;;;;;;;33.55;5.50;;;10.60;99.90;;;;;;5054309;28;20025;-70
2022/12/24 04:26:38;;;;;;;27.58;4.45;;;10.60;99.90;;;;;;5054530;28;20021;-70
2022/12/24 04:29:04;;;;;;;24.67;4.38;;;10.60;99.90;;;;;;5054578;28;20079;-70
2022/12/24 04:31:29;;;;;;;34.83;5.68;;;10.70;99.90;;;;;;5054497;28;20025;-68
2022/12/24 04:33:55;;;;;;;30.23;5.00;;;10.70;99.90;;;;;;5054113;28;20025;-70
2022/12/24 04:36:20;;;;;;;31.10;4.22;;;10.70;99.90;;;;;;5054452;28;20120;-69
2022/12/24 04:38:47;;;;;;;37.30;5.53;;;10.70;99.90;;;;;;5054385;28;20032;-70
2022/12/24 04:41:21;;;;;;;28.83;4.95;;;10.70;99.90;;;;;;5054339;28;20033;-69
2022/12/24 04:43:47;;;;;;;33.50;4.72;;;10.80;99.90;;;;;;5054346;28;20029;-69
2022/12/24 04:46:17;;;;;;;34.30;4.50;;;10.80;99.90;;;;;;5054257;28;20044;-70
2022/12/24 04:48:44;;;;;;;31.35;4.93;;;10.70;99.90;;;;;;5054174;28;20025;-70
2022/12/24 04:51:10;;;;;;;35.30;6.30;;;10.70;99.90;;;;;;5053742;28;20039;-69
2022/12/24 04:53:36;;;;;;;30.33;4.70;;;10.80;99.90;;;;;;5054233;28;20389;-70
2022/12/24 04:56:03;;;;;;;38.15;5.30;;;10.80;99.90;;;;;;5053990;28;20066;-68
2022/12/24 04:58:29;;;;;;;32.40;4.70;;;10.80;99.90;;;;;;5053992;28;20470;-68
2022/12/24 05:00:54;;;;;;;29.77;5.40;;;10.80;99.90;;;;;;5053090;28;20037;-70
2022/12/24 05:03:20;;;;;;;31.95;4.63;;;10.80;99.90;;;;;;5053856;28;20442;-69
2022/12/24 05:05:46;;;;;;;42.35;5.10;;;10.80;99.90;;;;;;5053847;28;20094;-69
2022/12/24 05:08:12;;;;;;;44.40;4.93;;;10.80;99.90;;;;;;5053612;28;20039;-70
2022/12/24 05:10:38;;;;;;;28.17;4.97;;;10.80;99.90;;;;;;5053953;28;20025;-68
2022/12/24 05:13:03;;;;;;;29.83;4.68;;;10.80;99.90;;;;;;5054079;28;20036;-68
2022/12/24 05:15:29;;;;;;;35.83;5.25;;;10.80;99.90;;;;;;5053807;28;20033;-68
2022/12/24 05:17:54;;;;;;;41.85;7.57;;;10.80;99.90;;;;;;5053529;28;20041;-68
2022/12/24 05:20:20;;;;;;;26.73;4.53;;;10.90;99.90;;;;;;5053532;28;20366;-70
2022/12/24 05:28:21;;;;;;;36.17;4.47;;;10.90;99.90;;;;;;5053615;28;20043;-67
2022/12/24 05:30:46;;;;;;;40.72;6.15;;;10.80;99.90;;;;;;5053686;28;20059;-69
2022/12/24 05:33:12;;;;;;;35.33;5.05;;;10.90;99.90;;;;;;5053566;28;20059;-69
2022/12/24 05:35:37;;;;;;;31.65;5.85;;;10.90;99.90;;;;;;5053515;28;20033;-68
2022/12/24 05:38:03;;;;;;;36.17;6.85;;;10.90;99.90;;;;;;5053542;28;20067;-69
2022/12/24 05:40:28;;;;;;;41.88;5.53;;;10.90;99.90;;;;;;5053281;28;20029;-70
2022/12/24 05:42:54;;;;;;;35.95;5.80;;;10.90;99.90;;;;;;5052932;28;20033;-68
2022/12/24 05:45:20;;;;;;;31.40;6.10;;;10.90;99.90;;;;;;5053367;28;20041;-68
2022/12/24 05:47:45;;;;;;;36.78;5.28;;;10.90;99.90;;;;;;5053235;28;20059;-69
2022/12/24 05:50:11;;;;;;;35.58;4.50;;;11.00;99.90;;;;;;5053066;28;20017;-69
2022/12/24 05:52:37;;;;;;;41.75;6.32;;;10.90;99.90;;;;;;5053024;28;20024;-68
2022/12/24 05:55:02;;;;;;;32.47;5.05;;;10.90;99.90;;;;;;5052909;28;20029;-69
2022/12/24 05:57:28;;;;;;;43.30;5.63;;;10.90;99.90;;;;;;5053015;28;20045;-68
2022/12/24 05:59:54;;;;;;;43.90;5.38;;;11.00;99.90;;;;;;5053122;28;20449;-67
2022/12/24 06:02:20;;;;;;;38.10;5.32;;;10.90;99.90;;;;;;5052917;28;20108;-68
2022/12/24 06:04:45;;;;;;;41.25;5.57;;;10.90;99.90;;;;;;5052975;28;20112;-69
2022/12/24 06:07:11;;;;;;;44.28;5.95;;;10.90;99.90;;;;;;5053092;28;20033;-70
2022/12/24 06:09:36;;;;;;;36.15;5.30;;;10.90;99.90;;;;;;5053065;28;20031;-70
2022/12/24 06:12:02;;;;;;;39.75;5.82;;;10.90;99.90;;;;;;5052765;28;20032;-69
2022/12/24 06:14:27;;;;;;;36.80;5.38;;;10.90;99.90;;;;;;5052802;28;20032;-69
2022/12/24 06:16:53;;;;;;;32.30;5.53;;;10.80;99.90;;;;;;5052616;28;20094;-69
2022/12/24 06:19:18;;;;;;;37.60;6.00;;;10.80;99.90;;;;;;5052837;28;20040;-69
2022/12/24 06:21:44;;;;;;;35.78;5.57;;;10.80;99.90;;;;;;5053085;28;20021;-70
2022/12/24 06:24:09;;;;;;;44.92;6.32;;;10.80;99.90;;;;;;5052765;28;20035;-69
2022/12/24 06:26:35;;;;;;;40.90;5.45;;;10.70;99.90;;;;;;5051377;28;20037;-68
2022/12/24 06:29:01;;;;;;;56.58;6.07;;;10.70;99.90;;;;;;5051509;28;20086;-68
2022/12/24 06:31:26;;;;;;;39.13;6.38;;;10.70;99.90;;;;;;5050664;28;20119;-69
2022/12/24 06:33:52;;;;;;;38.90;6.13;;;10.80;99.90;;;;;;5051889;28;20044;-70
2022/12/24 06:36:21;;;;;;;49.20;6.13;;;10.70;99.90;;;;;;5051824;28;20083;-68
2022/12/24 06:38:48;;;;;;;36.42;5.63;;;10.70;99.90;;;;;;5051812;28;20033;-69
2022/12/24 06:41:14;;;;;;;38.28;5.20;;;10.70;99.90;;;;;;5051771;28;20021;-69
2022/12/24 06:43:44;;;;;;;32.63;6.13;;;10.70;99.90;;;;;;5045304;28;20059;-69
2022/12/24 06:46:09;;;;;;;37.70;5.15;;;10.70;99.90;;;;;;5051744;28;20036;-70
2022/12/24 06:48:35;;;;;;;38.63;5.97;;;10.70;99.90;;;;;;5052295;28;20033;-70
2022/12/24 06:51:02;;;;;;;43.65;6.40;;;10.70;99.90;;;;;;5051709;28;20037;-70
2022/12/24 06:53:28;;;;;;;31.55;4.97;;;10.60;99.90;;;;;;5051566;28;20138;-68
2022/12/24 06:56:11;;;;;;;37.20;5.35;;;10.60;99.90;;;;;;5052181;28;20470;-69
2022/12/24 06:58:37;;;;;;;40.45;5.70;;;10.60;99.90;;;;;;5051738;28;20044;-69
2022/12/24 07:01:05;;;;;;;36.72;6.07;;;10.60;99.90;;;;;;5051811;28;20029;-68
2022/12/24 07:03:31;;;;;;;39.65;7.03;;;10.60;99.90;;;;;;5051737;28;20041;-69
2022/12/24 07:05:57;;;;;;;43.47;6.45;;;10.50;99.90;;;;;;5051554;28;20111;-69
2022/12/24 07:08:23;;;;;;;43.00;6.30;;;10.50;99.90;;;;;;5051487;28;20025;-69
2022/12/24 07:10:50;;;;;;;41.92;5.72;;;10.50;99.90;;;;;;5051776;28;20021;-68
2022/12/24 07:13:16;;;;;;;40.17;6.55;;;10.60;99.90;;;;;;5051703;28;20203;-68
2022/12/24 07:15:42;;;;;;;39.78;6.15;;;10.50;99.90;;;;;;5051258;28;20028;-69
2022/12/24 07:18:08;;;;;;;40.20;6.35;;;10.50;99.90;;;;;;5051555;28;20045;-69
2022/12/24 07:20:34;;;;;;;41.55;5.22;;;10.50;99.90;;;;;;5051211;28;20033;-69
2022/12/24 07:22:59;;;;;;;48.28;6.65;;;10.60;99.90;;;;;;5052338;28;20047;-69
2022/12/24 07:25:25;;;;;;;39.28;6.90;;;10.50;99.90;;;;;;5055168;28;20454;-70
2022/12/24 07:27:50;;;;;;;43.00;7.72;;;10.60;99.90;;;;;;5055167;28;20791;-69
2022/12/24 07:30:17;;;;;;;36.70;6.45;;;10.60;99.90;;;;;;5055007;28;20033;-68
2022/12/24 07:32:43;;;;;;;40.65;5.50;;;10.50;99.90;;;;;;5055201;28;20021;-68
2022/12/24 07:35:09;;;;;;;42.53;7.22;;;10.50;99.90;;;;;;5055457;28;20100;-69
2022/12/24 07:37:35;;;;;;;38.15;5.70;;;10.50;99.90;;;;;;5053739;28;20128;-68
2022/12/24 07:40:00;;;;;;;47.92;6.53;;;10.50;99.90;;;;;;5053777;28;20455;-68
2022/12/24 07:42:26;;;;;;;35.33;5.43;;;10.50;99.90;;;;;;5055287;28;20803;-68
2022/12/24 07:44:51;;;;;;;35.78;5.18;;;10.50;99.90;;;;;;5055059;28;20474;-68
2022/12/24 07:47:17;;;;;;;36.55;5.13;;;10.50;99.90;;;;;;5054738;28;20053;-68
2022/12/24 07:49:42;;;;;;;38.33;5.70;;;10.60;99.90;;;;;;5054228;28;20025;-68
2022/12/24 07:52:08;;;;;;;38.33;5.80;;;10.60;99.90;;;;;;5054830;28;20021;-68
2022/12/24 07:54:33;;;;;;;41.97;5.75;;;10.60;99.90;;;;;;5053808;28;20467;-69
2022/12/24 07:56:59;;;;;;;31.08;5.18;;;10.50;99.90;;;;;;5054067;28;20543;-68
2022/12/24 07:59:25;;;;;;;45.05;5.97;;;10.60;99.90;;;;;;5054486;28;20029;-68
2022/12/24 08:01:50;;;;;;;38.58;5.55;;;10.50;99.90;;;;;;5054905;28;20029;-69
2022/12/24 08:04:16;;;;;;;38.70;5.68;;;10.60;99.90;;;;;;5054300;28;20033;-68
2022/12/24 08:06:41;;;;;;;39.33;6.15;;;10.60;99.90;;;;;;5053815;28;20040;-68
2022/12/24 08:09:07;;;;;;;34.88;4.57;;;10.60;99.90;;;;;;5054593;28;20035;-68
2022/12/24 08:11:32;;;;;;;37.42;5.15;;;10.60;99.90;;;;;;5052848;28;20453;-68
2022/12/24 08:13:58;;;;;;;45.88;6.88;;;10.70;99.90;;;;;;5054242;28;20032;-68
2022/12/24 08:16:24;;;;;;;36.83;5.43;;;10.70;99.90;;;;;;5054403;28;20044;-68
2022/12/24 08:18:49;;;;;;;43.30;6.25;;;10.70;99.90;;;;;;5054271;28;20116;-68
2022/12/24 08:21:15;;;;;;;39.75;6.22;;;10.80;99.90;;;;;;5054117;28;20492;-68
2022/12/24 08:23:41;;;;;;;37.08;5.63;;;10.80;99.90;;;;;;5054305;28;20037;-68
2022/12/24 08:26:08;;;;;;;32.70;5.50;;;10.80;99.90;;;;;;5054143;28;20029;-68
2022/12/24 08:28:34;;;;;;;41.42;6.38;;;10.80;99.90;;;;;;5053953;28;20032;-68
2022/12/24 08:31:00;;;;;;;41.25;5.65;;;10.80;99.90;;;;;;5054030;28;20036;-68
2022/12/24 08:33:25;;;;;;;40.25;5.55;;;10.80;99.90;;;;;;5053345;28;20504;-68
2022/12/24 08:35:53;;;;;;;36.45;5.55;;;10.80;99.90;;;;;;5053441;28;20065;-68
2022/12/24 08:38:19;;;;;;;35.40;5.30;;;10.90;99.90;;;;;;5053806;28;20052;-68
2022/12/24 08:40:49;;;;;;;46.08;6.40;;;10.90;99.90;;;;;;5053715;28;20056;-71
2022/12/24 08:43:18;;;;;;;39.97;5.95;;;10.90;99.90;;;;;;5053145;28;20032;-70
2022/12/24 08:45:45;;;;;;;45.60;8.25;;;10.90;99.90;;;;;;5053188;28;20147;-70
2022/12/24 08:48:11;;;;;;;43.10;6.40;;;10.90;99.90;;;;;;5053162;28;20040;-69
2022/12/24 08:50:41;;;;;;;35.17;6.00;;;10.90;99.90;;;;;;5051685;28;20043;-68
2022/12/24 08:53:07;;;;;;;37.83;7.95;;;10.80;99.90;;;;;;5053486;28;20032;-70
2022/12/24 08:55:33;;;;;;;46.03;8.02;;;10.80;99.90;;;;;;5053168;28;20392;-68
2022/12/24 08:57:59;;;;;;;41.75;5.45;;;10.80;99.90;;;;;;5053579;28;20041;-70
2022/12/24 09:00:25;;;;;;;44.22;7.03;;;10.80;99.90;;;;;;5053467;28;20028;-69
2022/12/24 09:02:50;;;;;;;39.75;5.97;;;10.90;99.90;;;;;;5053452;28;20029;-69
2022/12/24 09:05:16;;;;;;;29.58;5.65;;;11.00;99.90;;;;;;5053595;28;20025;-69
2022/12/24 09:07:43;;;;;;;40.83;7.70;;;11.00;99.90;;;;;;5053358;28;20028;-68
2022/12/24 09:10:09;;;;;;;39.13;6.93;;;11.00;99.90;;;;;;5052454;28;20082;-69
2022/12/24 09:12:37;;;;;;;34.75;6.50;;;11.10;99.90;;;;;;5053330;28;20064;-71
2022/12/24 09:15:06;;;;;;;38.58;6.53;;;11.10;99.90;;;;;;5053056;28;20044;-69
2022/12/24 09:17:56;;;;;;;43.10;6.43;;;11.20;99.90;;;;;;5053119;28;20067;-69
2022/12/24 09:20:21;;;;;;;34.40;6.43;;;11.30;99.90;;;;;;5048245;28;20033;-68
2022/12/24 09:22:47;;;;;;;39.88;6.63;;;11.30;99.90;;;;;;5060617;28;20074;-70
2022/12/24 09:25:12;;;;;;;37.60;5.28;;;11.40;99.90;;;;;;5068054;28;20020;-68
2022/12/24 09:27:38;;;;;;;34.25;5.88;;;11.40;99.90;;;;;;5067141;28;20476;-67
2022/12/24 09:30:05;;;;;;;39.55;6.68;;;11.40;99.90;;;;;;5062226;28;20454;-67
2022/12/24 09:32:33;;;;;;;38.70;5.53;;;11.40;99.90;;;;;;5067189;28;20546;-67
2022/12/24 09:34:59;;;;;;;39.38;7.40;;;11.40;99.90;;;;;;5059986;28;20032;-68
2022/12/24 09:37:25;;;;;;;42.05;5.93;;;11.30;99.90;;;;;;5056345;28;20101;-68
2022/12/24 09:39:50;;;;;;;32.65;5.68;;;11.30;99.90;;;;;;5051068;28;20188;-70
2022/12/24 09:42:21;;;;;;;43.58;5.75;;;11.20;99.90;;;;;;5050935;28;20036;-68
2022/12/24 09:44:50;;;;;;;30.93;5.00;;;11.20;99.90;;;;;;5051122;28;20070;-67
2022/12/24 09:47:37;;;;;;;41.08;5.25;;;11.20;99.90;;;;;;5050651;28;20564;-68
2022/12/24 09:50:16;;;;;;;31.40;5.28;;;11.20;99.90;;;;;;5050495;28;20033;-68
2022/12/24 09:52:44;;;;;;;40.15;5.38;;;11.10;99.90;;;;;;5050842;28;20033;-67
2022/12/24 09:55:22;;;;;;;35.28;5.88;;;11.10;99.90;;;;;;5049924;28;20036;-69
2022/12/24 09:57:53;;;;;;;30.77;5.18;;;11.10;99.90;;;;;;5048932;28;20069;-69
2022/12/24 10:00:35;;;;;;;28.42;4.68;;;11.10;99.90;;;;;;5051574;28;20066;-67
2022/12/24 10:03:05;;;;;;;26.90;5.65;;;11.10;99.90;;;;;;5050235;28;20044;-68
2022/12/24 10:05:44;;;;;;;28.80;4.75;;;11.20;99.90;;;;;;5048483;28;20120;-69
2022/12/24 10:08:19;;;;;;;30.75;5.47;;;11.20;99.90;;;;;;5050524;28;20112;-67
2022/12/24 10:10:50;;;;;;;25.67;4.40;;;11.20;99.90;;;;;;5051054;28;20112;-68
2022/12/24 10:13:30;;;;;;;32.85;3.97;;;11.30;99.90;;;;;;5049090;28;20061;-68
2022/12/24 10:16:21;;;;;;;36.83;4.80;;;11.20;99.90;;;;;;5048369;28;20087;-68
2022/12/24 10:19:03;;;;;;;37.70;5.00;;;11.20;99.90;;;;;;5052236;28;20521;-68
2022/12/24 10:21:56;;;;;;;27.67;5.32;;;11.20;99.90;;;;;;5052552;28;20096;-68
2022/12/24 10:24:34;;;;;;;24.00;4.10;;;11.20;99.90;;;;;;5037036;28;20104;-67
2022/12/24 10:27:13;;;;;;;30.45;4.65;;;11.20;99.90;;;;;;5050645;28;20083;-68
2022/12/24 10:29:45;;;;;;;35.05;4.65;;;11.30;99.90;;;;;;5049568;28;20032;-68
2022/12/24 10:32:34;;;;;;;34.00;5.63;;;11.30;99.90;;;;;;5051670;28;20450;-68
2022/12/24 10:35:07;;;;;;;27.27;5.40;;;11.50;99.90;;;;;;5044848;28;20044;-69
2022/12/24 10:37:32;;;;;;;30.63;4.72;;;11.60;99.90;;;;;;5051226;28;20041;-68
2022/12/24 10:39:59;;;;;;;27.27;4.97;;;12.00;99.90;;;;;;5051851;28;20100;-70
2022/12/24 10:42:41;;;;;;;32.97;4.55;;;12.30;99.90;;;;;;5051979;28;20061;-67
2022/12/24 10:45:12;;;;;;;26.08;4.57;;;12.70;99.90;;;;;;5052134;28;20029;-70
2022/12/24 10:47:39;;;;;;;24.02;4.20;;;13.00;99.90;;;;;;5055440;28;20045;-69
2022/12/24 10:50:32;;;;;;;33.30;5.10;;;13.30;99.90;;;;;;5052198;28;20029;-70
2022/12/24 10:53:16;;;;;;;25.92;3.90;;;13.70;99.90;;;;;;5052273;28;20021;-69
2022/12/24 10:55:42;;;;;;;23.20;3.60;;;14.10;99.90;;;;;;5050654;28;20453;-69
2022/12/24 10:58:15;;;;;;;23.83;4.88;;;14.60;99.90;;;;;;5051038;28;20112;-70
2022/12/24 11:00:41;;;;;;;24.35;4.47;;;15.00;99.90;;;;;;5055875;28;20572;-70
2022/12/24 11:03:23;;;;;;;24.45;4.55;;;15.10;99.90;;;;;;5056084;28;20064;-69
2022/12/24 11:06:00;;;;;;;22.88;4.20;;;14.90;99.90;;;;;;5055970;28;20029;-70
2022/12/24 11:08:26;;;;;;;30.52;4.57;;;14.60;99.90;;;;;;5054470;28;20025;-69
2022/12/24 11:11:04;;;;;;;35.00;4.78;;;14.30;99.90;;;;;;5055781;28;20067;-70
2022/12/24 11:13:38;;;;;;;28.95;4.80;;;14.10;99.90;;;;;;5056041;28;20029;-67
2022/12/24 11:16:09;;;;;;;33.38;5.80;;;13.80;99.90;;;;;;5055706;28;20021;-70
2022/12/24 11:18:42;;;;;;;22.20;3.85;;;13.40;99.90;;;;;;5056042;28;20028;-68
2022/12/24 11:21:08;;;;;;;27.88;4.30;;;13.20;99.90;;;;;;5055865;28;20025;-70
2022/12/24 11:23:34;;;;;;;26.95;3.55;;;13.00;99.90;;;;;;5055192;28;20213;-67
2022/12/24 11:26:00;;;;;;;21.77;4.22;;;12.80;99.90;;;;;;5055025;28;20200;-69
2022/12/24 11:28:29;;;;;;;24.15;3.63;;;12.70;99.90;;;;;;5055553;28;20025;-69
2022/12/24 11:31:03;;;;;;;21.77;4.28;;;12.60;99.90;;;;;;5055413;28;20032;-69
2022/12/24 11:33:30;;;;;;;25.20;3.85;;;12.50;99.90;;;;;;5055346;28;20025;-67
2022/12/24 11:36:11;;;;;;;26.27;4.22;;;12.50;99.90;;;;;;5055257;28;20032;-68
2022/12/24 11:38:37;;;;;;;26.05;3.65;;;12.40;99.90;;;;;;5054869;28;20036;-68
2022/12/24 11:41:06;;;;;;;25.40;3.78;;;12.40;99.90;;;;;;5054169;28;20081;-69
2022/12/24 11:43:44;;;;;;;22.98;4.10;;;12.40;99.90;;;;;;5052641;28;20466;-68
2022/12/24 11:46:18;;;;;;;29.40;4.35;;;12.40;99.90;;;;;;5054612;28;20103;-68
2022/12/24 11:48:44;;;;;;;30.52;4.22;;;12.50;99.90;;;;;;5053168;28;20041;-68
2022/12/24 11:51:25;;;;;;;22.17;4.25;;;12.50;99.90;;;;;;5053793;28;20039;-67
2022/12/24 11:53:57;;;;;;;22.42;3.80;;;12.50;99.90;;;;;;5054894;28;20037;-67
2022/12/24 11:56:45;;;;;;;29.25;4.70;;;12.40;99.90;;;;;;5054502;28;20040;-70
2022/12/24 11:59:16;;;;;;;21.05;3.85;;;12.40;99.90;;;;;;5054955;28;20037;-69
2022/12/24 12:01:47;;;;;;;28.23;4.77;;;12.40;99.90;;;;;;5054707;28;20029;-69
2022/12/24 12:04:23;;;;;;;26.30;4.38;;;12.40;99.90;;;;;;5038780;28;20038;-67
2022/12/24 12:06:54;;;;;;;26.55;3.80;;;12.30;99.90;;;;;;5054746;28;20063;-70
2022/12/24 12:09:37;;;;;;;25.97;4.90;;;12.30;99.90;;;;;;5054308;28;20021;-67
2022/12/24 12:12:11;;;;;;;24.48;4.15;;;12.30;99.90;;;;;;5054457;28;20531;-70
2022/12/24 12:15:21;;;;;;;36.38;4.68;;;12.30;99.90;;;;;;5054990;28;20395;-70
2022/12/24 12:17:51;;;;;;;32.72;3.70;;;12.30;99.90;;;;;;5053268;28;20045;-70
2022/12/24 12:20:25;;;;;;;26.90;3.92;;;12.30;99.90;;;;;;5039052;28;20025;-70
2022/12/24 12:23:09;;;;;;;23.13;3.90;;;12.10;99.90;;;;;;5052932;28;20104;-69
2022/12/24 12:25:50;;;;;;;30.20;5.10;;;12.00;99.90;;;;;;5054409;28;20025;-68
2022/12/24 12:28:46;;;;;;;29.95;6.38;;;11.90;99.90;;;;;;5038574;28;20060;-70
2022/12/24 12:31:33;;;;;;;27.00;3.60;;;11.70;99.90;;;;;;5052865;28;20448;-69
2022/12/24 12:34:15;;;;;;;28.30;4.93;;;11.70;99.90;;;;;;5054287;28;20032;-69
2022/12/24 12:36:44;;;;;;;27.75;4.18;;;11.70;99.90;;;;;;5052708;28;20115;-69
2022/12/24 12:39:11;;;;;;;23.10;3.75;;;11.60;99.90;;;;;;5054099;28;20036;-69
2022/12/24 12:42:18;;;;;;;31.08;3.85;;;11.60;99.90;;;;;;5054307;28;20029;-69
2022/12/24 12:45:20;;;;;;;29.70;3.83;;;11.70;99.90;;;;;;5042183;28;20021;-69
2022/12/24 12:47:59;;;;;;;24.52;3.60;;;11.90;99.90;;;;;;5052218;28;20060;-70
2022/12/24 12:50:44;;;;;;;25.25;3.50;;;12.00;99.90;;;;;;5039435;28;20032;-68
2022/12/24 12:53:13;;;;;;;23.27;4.10;;;12.00;99.90;;;;;;5053794;28;20132;-69
2022/12/24 12:56:06;;;;;;;27.00;3.95;;;12.00;99.90;;;;;;5053387;28;20492;-70
2022/12/24 12:58:51;;;;;;;17.15;3.58;;;12.00;99.90;;;;;;5047834;28;20044;-69
2022/12/24 13:01:48;;;;;;;22.45;4.75;;;11.80;99.90;;;;;;5052673;28;20041;-67
2022/12/24 13:04:46;;;;;;;23.08;3.90;;;11.70;99.90;;;;;;5036924;28;20032;-68
2022/12/24 13:07:20;;;;;;;24.90;3.88;;;11.60;99.90;;;;;;5050428;28;20523;-69
2022/12/24 13:10:02;;;;;;;28.30;3.70;;;11.50;99.90;;;;;;5053544;28;20024;-69
2022/12/24 13:12:51;;;;;;;;;;;11.50;99.90;;;;;;5040134;28;20485;-68
2022/12/24 13:15:32;;;;;;;27.25;4.57;;;11.40;99.90;;;;;;5052101;28;19909;-69
2022/12/24 13:18:19;;;;;;;28.10;3.47;;;11.40;99.90;;;;;;5053039;28;20037;-69
2022/12/24 13:20:48;;;;;;;25.60;4.70;;;11.40;99.90;;;;;;5052703;28;20025;-69
2022/12/24 13:23:18;;;;;;;31.65;5.32;;;11.40;99.90;;;;;;5051606;28;20060;-69
2022/12/24 13:25:46;;;;;;;19.67;3.88;;;11.40;99.90;;;;;;5052859;28;20021;-67
2022/12/24 13:28:21;;;;;;;24.90;4.47;;;11.30;99.90;;;;;;5052850;28;20071;-69
2022/12/24 13:30:49;;;;;;;36.25;4.97;;;11.20;99.90;;;;;;5053150;28;20029;-67
2022/12/24 13:33:36;;;;;;;26.02;4.05;;;11.10;99.90;;;;;;5053350;28;20029;-69
2022/12/24 13:36:05;;;;;;;29.98;4.50;;;11.10;99.90;;;;;;5053198;28;20107;-68
2022/12/24 13:38:43;;;;;;;31.13;4.13;;;11.10;99.90;;;;;;5053072;28;20060;-68
2022/12/24 13:41:39;;;;;;;28.40;4.68;;;11.10;99.90;;;;;;5053302;28;20021;-69
2022/12/24 13:44:14;;;;;;;30.45;4.93;;;11.10;99.90;;;;;;5052795;28;20359;-69
2022/12/24 13:46:48;;;;;;;32.72;5.43;;;11.20;99.90;;;;;;5052675;28;20033;-69
2022/12/24 13:49:41;;;;;;;26.20;4.53;;;11.10;99.90;;;;;;5053272;28;20080;-68
2022/12/24 13:52:24;;;;;;;34.60;6.47;;;11.10;99.90;;;;;;5052903;28;20033;-69
2022/12/24 13:54:53;;;;;;;31.83;5.30;;;11.00;99.90;;;;;;5053011;28;20017;-67
2022/12/24 13:57:36;;;;;;;37.83;5.00;;;11.00;99.90;;;;;;5052446;28;20412;-68
2022/12/24 14:00:11;;;;;;;28.75;3.95;;;10.90;99.90;;;;;;5052853;28;20386;-68
2022/12/24 14:02:48;;;;;;;45.47;5.57;;;10.90;99.90;;;;;;5052855;28;20021;-66
2022/12/24 14:05:36;;;;;;;40.10;5.65;;;10.80;99.90;;;;;;5052834;28;20032;-69
2022/12/24 14:08:05;;;;;;;29.92;4.75;;;10.70;99.90;;;;;;5052465;28;20028;-69
2022/12/24 14:10:41;;;;;;;32.25;5.38;;;10.70;99.90;;;;;;5051477;28;20345;-68
2022/12/24 14:13:38;;;;;;;28.42;5.10;;;10.60;99.90;;;;;;5052826;28;20087;-69
2022/12/24 14:16:21;;;;;;;25.90;3.85;;;10.60;99.90;;;;;;5052112;28;20535;-69
2022/12/24 14:19:00;;;;;;;26.52;4.78;;;10.50;99.90;;;;;;5052283;28;20466;-68
2022/12/24 14:21:34;;;;;;;34.63;5.88;;;10.50;99.90;;;;;;5052302;28;20021;-67
2022/12/24 14:24:16;;;;;;;34.35;4.70;;;10.50;99.90;;;;;;5052768;28;20478;-69
2022/12/24 14:27:00;;;;;;;37.10;5.60;;;10.40;99.90;;;;;;5052620;28;20064;-69
2022/12/24 14:29:34;;;;;;;36.50;6.22;;;10.30;99.90;;;;;;5050973;28;20497;-67
2022/12/24 14:32:04;;;;;;;33.20;4.43;;;10.30;99.90;;;;;;5051576;28;20021;-69
2022/12/24 14:34:30;;;;;;;35.92;5.10;;;10.20;99.90;;;;;;5051594;28;20435;-70
2022/12/24 14:36:58;;;;;;;35.95;4.97;;;10.20;99.90;;;;;;5049645;28;20453;-68
2022/12/24 14:39:36;;;;;;;37.97;5.18;;;10.10;99.90;;;;;;5051391;28;20021;-69
2022/12/24 14:42:08;;;;;;;31.92;5.35;;;10.10;99.90;;;;;;5052195;28;20116;-69
2022/12/24 14:44:59;;;;;;;28.60;4.50;;;10.10;99.90;;;;;;5052055;28;20036;-69
2022/12/24 14:47:49;;;;;;;32.33;4.75;;;10.10;99.90;;;;;;5030531;28;20057;-70
2022/12/24 14:50:32;;;;;;;37.97;5.07;;;10.00;99.90;;;;;;5036166;28;20033;-67
2022/12/24 14:53:48;;;;;;;29.77;5.13;;;10.00;99.90;;;;;;5051972;28;20033;-67
2022/12/24 14:56:16;;;;;;;31.05;5.38;;;10.00;99.90;;;;;;5033531;28;20032;-69
2022/12/24 14:58:43;;;;;;;34.35;5.07;;;9.90;99.90;;;;;;5049558;28;20037;-69
2022/12/24 15:01:28;;;;;;;32.42;5.10;;;9.90;99.90;;;;;;5050555;28;20041;-69
2022/12/24 15:04:10;;;;;;;34.70;4.80;;;9.90;99.90;;;;;;5050452;28;20428;-69
2022/12/24 15:06:52;;;;;;;38.60;5.57;;;9.90;99.90;;;;;;5051729;28;20035;-68
2022/12/24 15:09:30;;;;;;;29.15;5.38;;;9.90;99.90;;;;;;5051921;28;20539;-69
2022/12/24 15:12:02;;;;;;;26.15;5.47;;;9.80;99.90;;;;;;5051841;28;20021;-67
2022/12/24 15:14:29;;;;;;;;;;;9.80;99.90;;;;;;5052497;28;20025;-68
2022/12/24 15:17:00;;;;;;;32.70;4.85;;;9.70;99.90;;;;;;5051612;28;20007;-68
2022/12/24 15:19:30;;;;;;;34.83;5.57;;;9.70;99.90;;;;;;5052057;28;20021;-70
2022/12/24 15:21:57;;;;;;;26.38;5.20;;;9.70;99.90;;;;;;5050341;28;20266;-68
2022/12/24 15:24:33;;;;;;;32.47;6.10;;;9.60;99.90;;;;;;5046682;28;20108;-70
2022/12/24 15:27:01;;;;;;;36.20;5.47;;;9.60;99.90;;;;;;5050199;28;20025;-67
2022/12/24 15:29:31;;;;;;;28.40;4.80;;;9.50;99.90;;;;;;5050406;28;20024;-69
2022/12/24 15:31:59;;;;;;;36.83;5.53;;;9.50;99.90;;;;;;5050154;28;20047;-68
2022/12/24 15:34:35;;;;;;;37.10;8.07;;;9.50;99.90;;;;;;5050002;28;20041;-68
2022/12/24 15:37:23;;;;;;;35.00;6.50;;;9.40;99.90;;;;;;5051239;28;20082;-68
2022/12/24 15:40:03;;;;;;;35.17;5.22;;;9.40;99.90;;;;;;5051686;28;20036;-68
2022/12/24 15:42:29;;;;;;;30.05;4.80;;;9.40;99.90;;;;;;5051610;28;20021;-67
2022/12/24 15:45:03;;;;;;;33.60;6.20;;;9.30;99.90;;;;;;5053512;28;20028;-68
2022/12/24 15:47:38;;;;;;;36.35;5.18;;;9.30;99.90;;;;;;5053622;28;20060;-68
2022/12/24 15:50:32;;;;;;;33.75;6.03;;;9.30;99.90;;;;;;5054388;28;20525;-68
2022/12/24 15:53:07;;;;;;;37.88;5.88;;;9.20;99.90;;;;;;5054741;28;20036;-68
2022/12/24 15:55:37;;;;;;;31.58;4.72;;;9.20;99.90;;;;;;5055263;28;20450;-68